sensor_id;sensor_type;location;lat;lon;timestamp;P1;durP1;ratioP1;P2;durP2;ratioP2
77736;SDS011;66903;59.926;30.404;2023-04-25T00:01:08;3.58;;;1.30;;
77736;SDS011;66903;59.926;30.404;2023-04-25T00:06:09;4.18;;;1.38;;
77736;SDS011;66903;59.926;30.404;2023-04-25T00:11:09;4.90;;;1.50;;
77736;SDS011;66903;59.926;30.404;2023-04-25T00:16:10;6.78;;;1.67;;
77736;SDS011;66903;59.926;30.404;2023-04-25T00:21:11;3.60;;;1.23;;
77736;SDS011;66903;59.926;30.404;2023-04-25T00:26:12;4.03;;;1.23;;
77736;SDS011;66903;59.926;30.404;2023-04-25T00:31:12;4.93;;;1.63;;
77736;SDS011;66903;59.926;30.404;2023-04-25T00:36:13;3.63;;;1.48;;
77736;SDS011;66903;59.926;30.404;2023-04-25T00:41:14;4.53;;;1.70;;
77736;SDS011;66903;59.926;30.404;2023-04-25T00:46:15;5.25;;;1.88;;
77736;SDS011;66903;59.926;30.404;2023-04-25T00:51:16;3.67;;;1.40;;
77736;SDS011;66903;59.926;30.404;2023-04-25T00:56:20;5.07;;;1.55;;
77736;SDS011;66903;59.926;30.404;2023-04-25T01:01:21;3.88;;;1.63;;
77736;SDS011;66903;59.926;30.404;2023-04-25T01:06:22;4.20;;;1.55;;
77736;SDS011;66903;59.926;30.404;2023-04-25T01:11:22;4.25;;;2.00;;
77736;SDS011;66903;59.926;30.404;2023-04-25T01:16:23;5.28;;;1.90;;
77736;SDS011;66903;59.926;30.404;2023-04-25T01:21:24;3.88;;;1.73;;
77736;SDS011;66903;59.926;30.404;2023-04-25T01:26:27;6.80;;;2.03;;
77736;SDS011;66903;59.926;30.404;2023-04-25T01:31:27;3.95;;;1.75;;
77736;SDS011;66903;59.926;30.404;2023-04-25T01:36:28;3.88;;;1.40;;
77736;SDS011;66903;59.926;30.404;2023-04-25T01:41:30;4.65;;;1.42;;
77736;SDS011;66903;59.926;30.404;2023-04-25T01:46:32;4.15;;;1.75;;
77736;SDS011;66903;59.926;30.404;2023-04-25T01:51:34;3.90;;;1.50;;
77736;SDS011;66903;59.926;30.404;2023-04-25T01:56:36;4.35;;;1.40;;
77736;SDS011;66903;59.926;30.404;2023-04-25T02:01:37;4.32;;;1.50;;
77736;SDS011;66903;59.926;30.404;2023-04-25T02:06:38;4.25;;;1.80;;
77736;SDS011;66903;59.926;30.404;2023-04-25T02:11:38;4.53;;;1.73;;
77736;SDS011;66903;59.926;30.404;2023-04-25T02:16:39;3.90;;;1.52;;
77736;SDS011;66903;59.926;30.404;2023-04-25T02:21:39;3.72;;;1.40;;
77736;SDS011;66903;59.926;30.404;2023-04-25T02:26:40;4.57;;;1.80;;
77736;SDS011;66903;59.926;30.404;2023-04-25T02:31:40;3.70;;;1.35;;
77736;SDS011;66903;59.926;30.404;2023-04-25T02:36:41;3.60;;;1.48;;
77736;SDS011;66903;59.926;30.404;2023-04-25T02:41:42;4.38;;;1.58;;
77736;SDS011;66903;59.926;30.404;2023-04-25T02:46:42;6.93;;;1.50;;
77736;SDS011;66903;59.926;30.404;2023-04-25T02:51:43;3.60;;;1.50;;
77736;SDS011;66903;59.926;30.404;2023-04-25T02:56:43;3.80;;;1.27;;
77736;SDS011;66903;59.926;30.404;2023-04-25T03:01:44;4.30;;;1.40;;
77736;SDS011;66903;59.926;30.404;2023-04-25T03:06:45;3.53;;;1.35;;
77736;SDS011;66903;59.926;30.404;2023-04-25T03:11:45;3.97;;;1.50;;
77736;SDS011;66903;59.926;30.404;2023-04-25T03:16:46;4.65;;;1.30;;
77736;SDS011;66903;59.926;30.404;2023-04-25T03:21:47;3.30;;;1.23;;
77736;SDS011;66903;59.926;30.404;2023-04-25T03:26:48;4.40;;;1.27;;
77736;SDS011;66903;59.926;30.404;2023-04-25T03:31:48;3.15;;;1.17;;
77736;SDS011;66903;59.926;30.404;2023-04-25T03:36:49;3.22;;;1.10;;
77736;SDS011;66903;59.926;30.404;2023-04-25T03:41:49;3.55;;;1.30;;
77736;SDS011;66903;59.926;30.404;2023-04-25T03:46:50;2.75;;;1.10;;
77736;SDS011;66903;59.926;30.404;2023-04-25T03:51:50;3.50;;;1.20;;
77736;SDS011;66903;59.926;30.404;2023-04-25T03:56:51;3.72;;;1.20;;
77736;SDS011;66903;59.926;30.404;2023-04-25T04:01:52;4.03;;;1.23;;
77736;SDS011;66903;59.926;30.404;2023-04-25T04:06:52;4.13;;;1.23;;
77736;SDS011;66903;59.926;30.404;2023-04-25T04:11:53;3.60;;;1.00;;
77736;SDS011;66903;59.926;30.404;2023-04-25T04:16:53;3.50;;;1.00;;
77736;SDS011;66903;59.926;30.404;2023-04-25T04:21:54;6.55;;;1.20;;
77736;SDS011;66903;59.926;30.404;2023-04-25T04:26:54;3.25;;;1.20;;
77736;SDS011;66903;59.926;30.404;2023-04-25T04:31:56;5.97;;;1.10;;
77736;SDS011;66903;59.926;30.404;2023-04-25T04:36:57;3.90;;;1.70;;
77736;SDS011;66903;59.926;30.404;2023-04-25T04:41:57;3.20;;;1.10;;
77736;SDS011;66903;59.926;30.404;2023-04-25T04:46:58;3.00;;;1.00;;
77736;SDS011;66903;59.926;30.404;2023-04-25T04:51:59;2.58;;;1.08;;
77736;SDS011;66903;59.926;30.404;2023-04-25T04:57:00;6.35;;;1.20;;
77736;SDS011;66903;59.926;30.404;2023-04-25T05:02:01;2.95;;;1.02;;
77736;SDS011;66903;59.926;30.404;2023-04-25T05:07:01;3.50;;;1.00;;
77736;SDS011;66903;59.926;30.404;2023-04-25T05:12:02;2.35;;;0.90;;
77736;SDS011;66903;59.926;30.404;2023-04-25T05:17:02;2.78;;;1.00;;
77736;SDS011;66903;59.926;30.404;2023-04-25T05:22:06;2.55;;;0.85;;
77736;SDS011;66903;59.926;30.404;2023-04-25T05:27:07;4.45;;;1.98;;
77736;SDS011;66903;59.926;30.404;2023-04-25T05:32:07;3.08;;;1.10;;
77736;SDS011;66903;59.926;30.404;2023-04-25T05:37:08;2.80;;;0.90;;
77736;SDS011;66903;59.926;30.404;2023-04-25T05:42:09;3.05;;;1.20;;
77736;SDS011;66903;59.926;30.404;2023-04-25T05:47:10;4.10;;;1.00;;
77736;SDS011;66903;59.926;30.404;2023-04-25T05:52:10;2.03;;;0.70;;
77736;SDS011;66903;59.926;30.404;2023-04-25T05:57:24;3.15;;;1.00;;
77736;SDS011;66903;59.926;30.404;2023-04-25T06:02:26;2.67;;;0.80;;
77736;SDS011;66903;59.926;30.404;2023-04-25T06:07:27;2.83;;;0.85;;
77736;SDS011;66903;59.926;30.404;2023-04-25T06:12:27;2.35;;;0.88;;
77736;SDS011;66903;59.926;30.404;2023-04-25T06:17:28;2.70;;;0.98;;
77736;SDS011;66903;59.926;30.404;2023-04-25T06:22:28;2.90;;;1.10;;
77736;SDS011;66903;59.926;30.404;2023-04-25T06:27:29;4.07;;;1.40;;
77736;SDS011;66903;59.926;30.404;2023-04-25T06:32:29;2.25;;;0.80;;
77736;SDS011;66903;59.926;30.404;2023-04-25T06:37:30;2.22;;;0.80;;
77736;SDS011;66903;59.926;30.404;2023-04-25T06:42:30;4.15;;;0.98;;
77736;SDS011;66903;59.926;30.404;2023-04-25T06:47:31;2.47;;;0.90;;
77736;SDS011;66903;59.926;30.404;2023-04-25T06:52:31;2.42;;;0.90;;
77736;SDS011;66903;59.926;30.404;2023-04-25T06:57:32;2.28;;;0.70;;
77736;SDS011;66903;59.926;30.404;2023-04-25T07:02:33;3.40;;;1.00;;
77736;SDS011;66903;59.926;30.404;2023-04-25T07:07:33;4.03;;;0.98;;
77736;SDS011;66903;59.926;30.404;2023-04-25T07:12:33;1.92;;;0.80;;
77736;SDS011;66903;59.926;30.404;2023-04-25T07:17:34;2.78;;;0.90;;
77736;SDS011;66903;59.926;30.404;2023-04-25T07:22:35;3.70;;;0.77;;
77736;SDS011;66903;59.926;30.404;2023-04-25T07:27:35;4.45;;;0.60;;
77736;SDS011;66903;59.926;30.404;2023-04-25T07:32:36;1.35;;;0.57;;
77736;SDS011;66903;59.926;30.404;2023-04-25T07:37:36;4.80;;;0.90;;
77736;SDS011;66903;59.926;30.404;2023-04-25T07:42:37;2.10;;;0.70;;
77736;SDS011;66903;59.926;30.404;2023-04-25T07:47:37;2.75;;;0.80;;
77736;SDS011;66903;59.926;30.404;2023-04-25T07:52:38;2.25;;;0.93;;
77736;SDS011;66903;59.926;30.404;2023-04-25T08:03:35;2.28;;;0.80;;
77736;SDS011;66903;59.926;30.404;2023-04-25T08:08:36;1.55;;;0.70;;
77736;SDS011;66903;59.926;30.404;2023-04-25T08:19:18;2.58;;;0.80;;
77736;SDS011;66903;59.926;30.404;2023-04-25T08:24:18;2.53;;;1.00;;
77736;SDS011;66903;59.926;30.404;2023-04-25T08:29:19;3.58;;;0.63;;
77736;SDS011;66903;59.926;30.404;2023-04-25T08:34:20;2.67;;;0.90;;
77736;SDS011;66903;59.926;30.404;2023-04-25T08:39:20;1.58;;;0.63;;
77736;SDS011;66903;59.926;30.404;2023-04-25T08:44:21;1.80;;;0.60;;
77736;SDS011;66903;59.926;30.404;2023-04-25T08:49:23;1.15;;;0.50;;
77736;SDS011;66903;59.926;30.404;2023-04-25T08:54:25;1.73;;;0.50;;
77736;SDS011;66903;59.926;30.404;2023-04-25T08:59:28;1.80;;;0.50;;
77736;SDS011;66903;59.926;30.404;2023-04-25T09:04:30;1.38;;;0.60;;
77736;SDS011;66903;59.926;30.404;2023-04-25T09:09:31;4.15;;;1.52;;
77736;SDS011;66903;59.926;30.404;2023-04-25T09:14:32;14.98;;;7.95;;
77736;SDS011;66903;59.926;30.404;2023-04-25T09:19:34;16.73;;;9.05;;
77736;SDS011;66903;59.926;30.404;2023-04-25T09:24:37;20.75;;;9.65;;
77736;SDS011;66903;59.926;30.404;2023-04-25T09:29:43;14.90;;;8.20;;
77736;SDS011;66903;59.926;30.404;2023-04-25T09:34:54;15.63;;;7.88;;
77736;SDS011;66903;59.926;30.404;2023-04-25T09:39:56;15.90;;;7.32;;
77736;SDS011;66903;59.926;30.404;2023-04-25T09:45:05;11.95;;;6.13;;
77736;SDS011;66903;59.926;30.404;2023-04-25T09:50:13;12.48;;;5.70;;
77736;SDS011;66903;59.926;30.404;2023-04-25T09:55:15;11.57;;;4.95;;
77736;SDS011;66903;59.926;30.404;2023-04-25T10:00:16;8.32;;;4.13;;
77736;SDS011;66903;59.926;30.404;2023-04-25T10:05:17;7.90;;;3.35;;
77736;SDS011;66903;59.926;30.404;2023-04-25T10:10:18;6.10;;;2.70;;
77736;SDS011;66903;59.926;30.404;2023-04-25T10:15:19;5.57;;;2.80;;
77736;SDS011;66903;59.926;30.404;2023-04-25T10:20:22;5.90;;;2.42;;
77736;SDS011;66903;59.926;30.404;2023-04-25T10:25:23;6.15;;;2.45;;
77736;SDS011;66903;59.926;30.404;2023-04-25T10:30:24;5.93;;;2.50;;
77736;SDS011;66903;59.926;30.404;2023-04-25T10:35:26;5.40;;;2.03;;
77736;SDS011;66903;59.926;30.404;2023-04-25T10:40:27;6.88;;;1.90;;
77736;SDS011;66903;59.926;30.404;2023-04-25T10:45:28;6.03;;;2.10;;
77736;SDS011;66903;59.926;30.404;2023-04-25T10:50:36;6.32;;;1.70;;
77736;SDS011;66903;59.926;30.404;2023-04-25T10:55:51;4.07;;;1.50;;
77736;SDS011;66903;59.926;30.404;2023-04-25T11:00:52;3.33;;;1.35;;
77736;SDS011;66903;59.926;30.404;2023-04-25T11:05:52;4.43;;;1.50;;
77736;SDS011;66903;59.926;30.404;2023-04-25T11:10:53;4.68;;;1.35;;
77736;SDS011;66903;59.926;30.404;2023-04-25T11:15:55;3.20;;;1.17;;
77736;SDS011;66903;59.926;30.404;2023-04-25T11:20:55;3.42;;;1.38;;
77736;SDS011;66903;59.926;30.404;2023-04-25T11:25:56;3.95;;;1.45;;
77736;SDS011;66903;59.926;30.404;2023-04-25T11:30:56;4.85;;;1.08;;
77736;SDS011;66903;59.926;30.404;2023-04-25T11:35:57;5.05;;;1.27;;
77736;SDS011;66903;59.926;30.404;2023-04-25T11:40:58;4.53;;;1.35;;
77736;SDS011;66903;59.926;30.404;2023-04-25T11:45:58;4.60;;;1.35;;
77736;SDS011;66903;59.926;30.404;2023-04-25T11:51:00;4.57;;;1.58;;
77736;SDS011;66903;59.926;30.404;2023-04-25T11:56:00;4.43;;;1.60;;
77736;SDS011;66903;59.926;30.404;2023-04-25T12:01:01;3.13;;;1.15;;
77736;SDS011;66903;59.926;30.404;2023-04-25T12:06:03;3.65;;;1.27;;
77736;SDS011;66903;59.926;30.404;2023-04-25T12:11:04;4.03;;;1.30;;
77736;SDS011;66903;59.926;30.404;2023-04-25T12:16:04;5.55;;;1.40;;
77736;SDS011;66903;59.926;30.404;2023-04-25T12:21:05;4.07;;;1.10;;
77736;SDS011;66903;59.926;30.404;2023-04-25T12:26:06;5.85;;;1.40;;
77736;SDS011;66903;59.926;30.404;2023-04-25T12:31:07;5.80;;;1.42;;
77736;SDS011;66903;59.926;30.404;2023-04-25T12:36:08;3.13;;;1.27;;
77736;SDS011;66903;59.926;30.404;2023-04-25T12:41:10;3.53;;;1.20;;
77736;SDS011;66903;59.926;30.404;2023-04-25T12:46:11;4.95;;;1.40;;
77736;SDS011;66903;59.926;30.404;2023-04-25T12:51:11;4.25;;;1.33;;
77736;SDS011;66903;59.926;30.404;2023-04-25T12:56:12;3.72;;;1.30;;
77736;SDS011;66903;59.926;30.404;2023-04-25T13:01:12;3.90;;;2.15;;
77736;SDS011;66903;59.926;30.404;2023-04-25T13:06:17;4.40;;;1.40;;
77736;SDS011;66903;59.926;30.404;2023-04-25T13:11:18;3.95;;;1.30;;
77736;SDS011;66903;59.926;30.404;2023-04-25T13:16:20;7.13;;;1.60;;
77736;SDS011;66903;59.926;30.404;2023-04-25T13:21:23;4.57;;;1.20;;
77736;SDS011;66903;59.926;30.404;2023-04-25T13:26:23;5.45;;;1.60;;
77736;SDS011;66903;59.926;30.404;2023-04-25T13:31:24;3.88;;;1.35;;
77736;SDS011;66903;59.926;30.404;2023-04-25T13:36:25;4.95;;;1.65;;
77736;SDS011;66903;59.926;30.404;2023-04-25T13:41:26;3.50;;;1.27;;
77736;SDS011;66903;59.926;30.404;2023-04-25T13:46:26;4.32;;;1.10;;
77736;SDS011;66903;59.926;30.404;2023-04-25T13:51:27;5.93;;;1.40;;
77736;SDS011;66903;59.926;30.404;2023-04-25T13:56:27;3.13;;;1.00;;
77736;SDS011;66903;59.926;30.404;2023-04-25T14:01:28;6.72;;;2.00;;
77736;SDS011;66903;59.926;30.404;2023-04-25T14:06:31;8.73;;;1.35;;
77736;SDS011;66903;59.926;30.404;2023-04-25T14:11:32;5.68;;;1.10;;
77736;SDS011;66903;59.926;30.404;2023-04-25T14:16:33;4.88;;;0.90;;
77736;SDS011;66903;59.926;30.404;2023-04-25T14:21:33;3.10;;;0.90;;
77736;SDS011;66903;59.926;30.404;2023-04-25T14:26:35;3.50;;;1.02;;
77736;SDS011;66903;59.926;30.404;2023-04-25T14:31:36;5.22;;;1.00;;
77736;SDS011;66903;59.926;30.404;2023-04-25T14:36:36;2.80;;;0.80;;
77736;SDS011;66903;59.926;30.404;2023-04-25T14:41:37;1.52;;;0.63;;
77736;SDS011;66903;59.926;30.404;2023-04-25T14:46:37;2.47;;;0.82;;
77736;SDS011;66903;59.926;30.404;2023-04-25T14:51:38;1.52;;;0.63;;
77736;SDS011;66903;59.926;30.404;2023-04-25T14:56:38;2.50;;;0.90;;
77736;SDS011;66903;59.926;30.404;2023-04-25T15:01:39;5.22;;;1.00;;
77736;SDS011;66903;59.926;30.404;2023-04-25T15:06:40;5.18;;;1.15;;
77736;SDS011;66903;59.926;30.404;2023-04-25T15:11:40;4.60;;;0.90;;
77736;SDS011;66903;59.926;30.404;2023-04-25T15:16:42;3.05;;;1.00;;
77736;SDS011;66903;59.926;30.404;2023-04-25T15:21:42;2.60;;;0.70;;
77736;SDS011;66903;59.926;30.404;2023-04-25T15:26:43;3.05;;;1.00;;
77736;SDS011;66903;59.926;30.404;2023-04-25T15:31:45;2.63;;;0.80;;
77736;SDS011;66903;59.926;30.404;2023-04-25T15:36:47;2.08;;;0.80;;
77736;SDS011;66903;59.926;30.404;2023-04-25T15:41:48;2.80;;;0.80;;
77736;SDS011;66903;59.926;30.404;2023-04-25T15:46:49;2.10;;;0.77;;
77736;SDS011;66903;59.926;30.404;2023-04-25T15:52:08;3.08;;;0.85;;
77736;SDS011;66903;59.926;30.404;2023-04-25T15:57:09;2.97;;;0.98;;
77736;SDS011;66903;59.926;30.404;2023-04-25T16:02:12;2.50;;;0.88;;
77736;SDS011;66903;59.926;30.404;2023-04-25T16:07:13;2.72;;;1.00;;
77736;SDS011;66903;59.926;30.404;2023-04-25T16:12:14;2.83;;;1.00;;
77736;SDS011;66903;59.926;30.404;2023-04-25T16:17:15;2.92;;;0.90;;
77736;SDS011;66903;59.926;30.404;2023-04-25T16:22:16;2.90;;;0.95;;
77736;SDS011;66903;59.926;30.404;2023-04-25T16:27:16;3.45;;;1.10;;
77736;SDS011;66903;59.926;30.404;2023-04-25T16:32:17;2.60;;;0.93;;
77736;SDS011;66903;59.926;30.404;2023-04-25T16:37:18;3.75;;;1.00;;
77736;SDS011;66903;59.926;30.404;2023-04-25T16:42:19;3.70;;;1.20;;
77736;SDS011;66903;59.926;30.404;2023-04-25T16:47:19;3.03;;;1.00;;
77736;SDS011;66903;59.926;30.404;2023-04-25T16:52:20;3.80;;;1.10;;
77736;SDS011;66903;59.926;30.404;2023-04-25T16:57:22;4.82;;;1.20;;
77736;SDS011;66903;59.926;30.404;2023-04-25T17:02:23;7.13;;;1.17;;
77736;SDS011;66903;59.926;30.404;2023-04-25T17:07:23;3.80;;;1.02;;
77736;SDS011;66903;59.926;30.404;2023-04-25T17:12:24;7.70;;;1.00;;
77736;SDS011;66903;59.926;30.404;2023-04-25T17:17:25;2.80;;;0.80;;
77736;SDS011;66903;59.926;30.404;2023-04-25T17:22:25;3.88;;;1.30;;
77736;SDS011;66903;59.926;30.404;2023-04-25T17:27:26;3.60;;;1.15;;
77736;SDS011;66903;59.926;30.404;2023-04-25T17:32:27;3.20;;;0.93;;
77736;SDS011;66903;59.926;30.404;2023-04-25T17:37:27;2.75;;;1.00;;
77736;SDS011;66903;59.926;30.404;2023-04-25T17:42:28;4.53;;;1.40;;
77736;SDS011;66903;59.926;30.404;2023-04-25T17:47:29;3.88;;;1.65;;
77736;SDS011;66903;59.926;30.404;2023-04-25T17:52:30;3.90;;;1.45;;
77736;SDS011;66903;59.926;30.404;2023-04-25T17:57:31;5.82;;;1.40;;
77736;SDS011;66903;59.926;30.404;2023-04-25T18:02:32;4.07;;;1.30;;
77736;SDS011;66903;59.926;30.404;2023-04-25T18:07:35;3.13;;;1.15;;
77736;SDS011;66903;59.926;30.404;2023-04-25T18:12:36;4.10;;;1.35;;
77736;SDS011;66903;59.926;30.404;2023-04-25T18:17:37;2.78;;;1.10;;
77736;SDS011;66903;59.926;30.404;2023-04-25T18:22:41;3.00;;;1.00;;
77736;SDS011;66903;59.926;30.404;2023-04-25T18:27:43;4.57;;;1.05;;
77736;SDS011;66903;59.926;30.404;2023-04-25T18:32:44;2.97;;;0.93;;
77736;SDS011;66903;59.926;30.404;2023-04-25T18:37:45;2.85;;;0.90;;
77736;SDS011;66903;59.926;30.404;2023-04-25T18:42:46;5.40;;;1.02;;
77736;SDS011;66903;59.926;30.404;2023-04-25T18:47:46;3.78;;;1.42;;
77736;SDS011;66903;59.926;30.404;2023-04-25T18:52:47;4.82;;;1.38;;
77736;SDS011;66903;59.926;30.404;2023-04-25T18:57:47;4.95;;;1.38;;
77736;SDS011;66903;59.926;30.404;2023-04-25T19:02:48;3.65;;;1.38;;
77736;SDS011;66903;59.926;30.404;2023-04-25T19:07:48;3.42;;;1.08;;
77736;SDS011;66903;59.926;30.404;2023-04-25T19:12:49;5.57;;;1.20;;
77736;SDS011;66903;59.926;30.404;2023-04-25T19:17:49;7.68;;;1.20;;
77736;SDS011;66903;59.926;30.404;2023-04-25T19:22:50;4.32;;;1.27;;
77736;SDS011;66903;59.926;30.404;2023-04-25T19:27:51;4.53;;;1.13;;
77736;SDS011;66903;59.926;30.404;2023-04-25T19:32:52;4.10;;;1.33;;
77736;SDS011;66903;59.926;30.404;2023-04-25T19:37:53;3.20;;;1.20;;
77736;SDS011;66903;59.926;30.404;2023-04-25T19:42:53;9.57;;;2.22;;
77736;SDS011;66903;59.926;30.404;2023-04-25T19:47:54;7.80;;;2.42;;
77736;SDS011;66903;59.926;30.404;2023-04-25T19:52:55;10.13;;;2.60;;
77736;SDS011;66903;59.926;30.404;2023-04-25T19:57:56;12.85;;;2.80;;
77736;SDS011;66903;59.926;30.404;2023-04-25T20:02:56;11.13;;;2.30;;
77736;SDS011;66903;59.926;30.404;2023-04-25T20:07:57;8.25;;;2.08;;
77736;SDS011;66903;59.926;30.404;2023-04-25T20:12:57;6.32;;;2.10;;
77736;SDS011;66903;59.926;30.404;2023-04-25T20:17:58;7.55;;;2.00;;
77736;SDS011;66903;59.926;30.404;2023-04-25T20:22:58;8.98;;;1.85;;
77736;SDS011;66903;59.926;30.404;2023-04-25T20:27:59;5.82;;;1.65;;
77736;SDS011;66903;59.926;30.404;2023-04-25T20:33:00;4.47;;;1.58;;
77736;SDS011;66903;59.926;30.404;2023-04-25T20:38:01;5.45;;;2.13;;
77736;SDS011;66903;59.926;30.404;2023-04-25T20:43:01;7.50;;;2.00;;
77736;SDS011;66903;59.926;30.404;2023-04-25T20:48:04;7.68;;;2.05;;
77736;SDS011;66903;59.926;30.404;2023-04-25T20:53:04;6.60;;;2.10;;
77736;SDS011;66903;59.926;30.404;2023-04-25T20:58:05;6.07;;;1.70;;
77736;SDS011;66903;59.926;30.404;2023-04-25T21:03:06;5.18;;;1.52;;
